Time;durP1;ratioP1;P1;durP2;ratioP2;P2;SDS_P1;SDS_P2;PMS_P1;PMS_P2;Temp;Humidity;BMP_temperature;BMP_pressure;BME280_temperature;BME280_humidity;BME280_pressure;Samples;Min_cycle;Max_cycle;Signal;HPM_P1;HPM_P2
2021/09/26 00:00:06;;;;;;;4.20;3.90;;;;;;;22.61;47.43;98346.88;5035996;28;20200;-58
2021/09/26 00:02:38;;;;;;;3.93;3.63;;;;;;;22.65;47.42;98334.00;5035944;28;20182;-58
2021/09/26 00:05:06;;;;;;;4.30;4.00;;;;;;;22.64;47.54;98335.84;5034506;28;20664;-58
2021/09/26 00:07:33;;;;;;;4.30;4.00;;;;;;;22.66;47.56;98335.63;5035782;28;20240;-58
2021/09/26 00:09:59;;;;;;;4.00;3.70;;;;;;;22.66;47.32;98343.63;5034555;28;20260;-58
2021/09/26 00:12:26;;;;;;;4.47;4.17;;;;;;;22.65;47.30;98342.81;5035015;28;20190;-58
2021/09/26 00:14:53;;;;;;;4.20;3.90;;;;;;;22.65;47.30;98345.47;5035617;28;20190;-58
2021/09/26 00:17:19;;;;;;;4.03;3.73;;;;;;;22.65;47.32;98326.00;5035846;28;20595;-58
2021/09/26 00:19:46;;;;;;;4.27;3.97;;;;;;;22.62;47.33;98329.91;5035565;28;20206;-58
2021/09/26 00:22:12;;;;;;;4.43;4.13;;;;;;;22.61;47.41;98325.59;5035878;28;20251;-58
2021/09/26 00:24:39;;;;;;;3.87;3.57;;;;;;;22.61;47.30;98320.28;5036041;28;20252;-57
2021/09/26 00:27:09;;;;;;;4.20;3.90;;;;;;;22.64;47.17;98306.59;5035414;28;20213;-58
2021/09/26 00:29:37;;;;;;;3.90;3.60;;;;;;;22.66;47.28;98306.38;5035432;28;20210;-58
2021/09/26 00:32:07;;;;;;;4.00;3.70;;;;;;;22.65;47.40;98308.22;5035410;28;20206;-58
2021/09/26 00:34:34;;;;;;;4.33;4.03;;;;;;;22.66;47.28;98309.88;5035662;28;20182;-58
2021/09/26 00:37:01;;;;;;;4.07;3.80;;;;;;;22.69;47.17;98309.47;5034457;28;20186;-58
2021/09/26 00:39:28;;;;;;;4.30;4.00;;;;;;;22.71;47.03;98303.16;5035729;28;20206;-57
2021/09/26 00:41:54;;;;;;;4.17;3.87;;;;;;;22.69;47.20;98314.00;5035256;28;20244;-58
2021/09/26 00:44:21;;;;;;;3.90;3.60;;;;;;;22.68;47.08;98317.66;5035229;28;20190;-58
2021/09/26 00:46:48;;;;;;;3.87;3.63;;;;;;;22.66;47.15;98317.84;5035369;28;20734;-58
2021/09/26 00:49:15;;;;;;;3.80;3.60;;;;;;;22.68;47.28;98320.34;5034999;28;20297;-57
2021/09/26 00:51:44;;;;;;;4.10;3.80;;;;;;;22.68;47.36;98318.47;5035129;28;20604;-58
2021/09/26 00:54:12;;;;;;;4.40;4.10;;;;;;;22.62;47.18;98316.59;5035026;28;20239;-58
2021/09/26 00:56:38;;;;;;;4.30;4.00;;;;;;;22.60;47.36;98323.13;5034943;28;20240;-58
2021/09/26 00:59:05;;;;;;;4.10;3.80;;;;;;;22.60;47.47;98326.59;5034968;28;20273;-57
2021/09/26 01:01:31;;;;;;;3.87;3.67;;;;;;;22.58;47.37;98323.28;5034818;28;20186;-58
2021/09/26 01:04:00;;;;;;;4.27;3.97;;;;;;;22.58;47.47;98311.84;5034840;28;20193;-58
2021/09/26 01:06:41;;;;;;;4.10;3.80;;;;;;;22.57;47.31;98321.66;5034744;28;20237;-58
2021/09/26 01:09:49;;;;;;;4.47;4.17;;;;;;;22.57;47.30;98316.31;5034766;28;20213;-58
2021/09/26 01:12:29;;;;;;;4.07;3.77;;;;;;;22.56;47.40;98314.69;5015747;28;20219;-57
2021/09/26 01:15:14;;;;;;;4.17;3.87;;;;;;;22.57;47.42;98316.31;5035158;28;20182;-58
2021/09/26 01:17:50;;;;;;;4.60;4.20;;;;;;;22.56;47.28;98321.84;5034664;28;20170;-58
2021/09/26 01:20:41;;;;;;;3.83;3.63;;;;;;;22.57;47.38;98320.84;5034549;28;20180;-58
2021/09/26 01:23:41;;;;;;;4.10;3.80;;;;;;;22.55;47.34;98321.00;5034988;28;20576;-58
2021/09/26 01:26:40;;;;;;;4.27;3.97;;;;;;;22.56;47.29;98325.31;5034498;28;20267;-58
2021/09/26 01:29:22;;;;;;;4.00;3.70;;;;;;;22.56;47.23;98330.63;5034413;28;20224;-56
2021/09/26 01:31:51;;;;;;;4.00;3.70;;;;;;;22.58;47.26;98327.81;5033160;28;20201;-58
2021/09/26 01:34:23;;;;;;;3.73;3.53;;;;;;;22.60;47.27;98333.75;5034203;28;20579;-58
2021/09/26 01:37:02;;;;;;;3.97;3.67;;;;;;;22.58;47.09;98333.94;5034527;28;20181;-58
2021/09/26 01:40:10;;;;;;;4.10;3.80;;;;;;;22.56;47.36;98335.16;5034066;28;20692;-57
2021/09/26 01:42:46;;;;;;;4.00;3.70;;;;;;;22.53;47.22;98336.34;5013771;28;20664;-58
2021/09/26 01:45:22;;;;;;;4.10;3.80;;;;;;;22.56;47.28;98333.31;5034102;28;20181;-58
2021/09/26 01:47:57;;;;;;;3.93;3.63;;;;;;;22.56;47.33;98335.97;5033859;28;20242;-58
2021/09/26 01:50:25;;;;;;;4.10;3.83;;;;;;;22.56;47.32;98317.34;5034547;28;20174;-58
2021/09/26 01:52:56;;;;;;;4.20;3.90;;;;;;;22.57;47.15;98321.66;5033830;28;20193;-57
2021/09/26 01:55:27;;;;;;;3.67;3.47;;;;;;;22.58;47.26;98320.63;5034386;28;20182;-58
2021/09/26 01:57:58;;;;;;;3.87;3.60;;;;;;;22.61;47.23;98322.94;5033716;28;20218;-58
2021/09/26 02:00:25;;;;;;;3.63;3.33;;;;;;;22.63;47.01;98325.38;5034345;28;20247;-58
2021/09/26 02:02:52;;;;;;;4.13;3.83;;;;;;;22.62;46.82;98319.25;5033684;28;20194;-58
2021/09/26 02:05:20;;;;;;;4.20;3.90;;;;;;;22.62;46.96;98324.56;5033658;28;20197;-57
2021/09/26 02:07:49;;;;;;;3.83;3.63;;;;;;;22.62;46.93;98324.56;5033374;28;20214;-58
2021/09/26 02:10:22;;;;;;;4.10;3.80;;;;;;;22.62;47.11;98324.56;5033601;28;20194;-57
2021/09/26 02:12:49;;;;;;;4.03;3.73;;;;;;;22.65;46.69;98328.66;5033758;28;20240;-58
2021/09/26 02:15:19;;;;;;;3.63;3.43;;;;;;;22.63;47.03;98323.56;5032434;28;20596;-58
2021/09/26 02:17:48;;;;;;;3.83;3.60;;;;;;;22.66;46.91;98328.50;5033744;28;20608;-58
2021/09/26 02:20:17;;;;;;;3.70;3.40;;;;;;;22.66;46.78;98333.81;5032374;28;20658;-57
2021/09/26 02:22:45;;;;;;;3.80;3.50;;;;;;;22.68;46.78;98331.78;5033669;28;20232;-58
2021/09/26 02:25:13;;;;;;;3.77;3.50;;;;;;;22.62;46.76;98329.91;5033343;28;20271;-58
2021/09/26 02:27:41;;;;;;;4.00;3.70;;;;;;;22.63;46.86;98328.03;5032063;28;20212;-58
2021/09/26 02:30:09;;;;;;;3.80;3.50;;;;;;;22.59;46.89;98327.59;5033242;28;20189;-58
2021/09/26 02:32:35;;;;;;;3.90;3.60;;;;;;;22.58;46.91;98333.94;5033208;28;20205;-58
2021/09/26 02:35:05;;;;;;;3.50;3.30;;;;;;;22.57;47.09;98332.28;5031945;28;20209;-58
2021/09/26 02:37:32;;;;;;;3.43;3.23;;;;;;;22.58;47.19;98322.47;5032527;28;20255;-58
2021/09/26 02:39:58;;;;;;;4.07;3.77;;;;;;;22.57;47.14;98328.81;5033649;28;20256;-58
2021/09/26 02:42:41;;;;;;;4.30;4.00;;;;;;;22.56;47.15;98333.31;5033100;28;20193;-57
2021/09/26 02:45:30;;;;;;;4.03;3.73;;;;;;;22.55;47.13;98318.34;5033114;28;20182;-58
2021/09/26 02:48:05;;;;;;;3.47;3.27;;;;;;;22.57;47.09;98319.00;5032974;28;20275;-58
2021/09/26 02:50:32;;;;;;;3.73;3.43;;;;;;;22.56;46.96;98317.34;5033617;28;20181;-58
2021/09/26 02:52:59;;;;;;;3.57;3.37;;;;;;;22.55;46.95;98318.34;5033286;28;20239;-58
2021/09/26 02:55:27;;;;;;;3.33;3.13;;;;;;;22.53;47.00;98318.56;5033203;28;20259;-57
2021/09/26 02:57:54;;;;;;;3.43;3.23;;;;;;;22.52;47.30;98321.41;5032129;28;20263;-58
2021/09/26 03:00:30;;;;;;;3.70;3.40;;;;;;;22.51;47.11;98312.59;5032968;28;20245;-57
2021/09/26 03:03:23;;;;;;;3.53;3.33;;;;;;;22.50;47.26;98310.13;5032069;28;20200;-57
2021/09/26 03:05:50;;;;;;;3.50;3.30;;;;;;;22.47;47.36;98305.19;5033087;28;20197;-58
2021/09/26 03:08:18;;;;;;;3.67;3.47;;;;;;;22.47;47.27;98302.53;5033076;28;20209;-58
2021/09/26 03:10:47;;;;;;;3.63;3.40;;;;;;;22.44;47.11;98303.72;5033055;28;20201;-57
2021/09/26 03:13:15;;;;;;;3.63;3.43;;;;;;;22.43;47.51;98304.72;5031506;28;20193;-58
2021/09/26 03:15:41;;;;;;;3.40;3.20;;;;;;;22.44;47.13;98300.25;5032795;28;20190;-57
2021/09/26 03:18:08;;;;;;;3.60;3.40;;;;;;;22.45;47.28;98296.56;5031583;28;20599;-58
2021/09/26 03:20:34;;;;;;;3.77;3.53;;;;;;;22.38;47.35;98288.53;5033039;28;20601;-58
2021/09/26 03:23:02;;;;;;;3.70;3.40;;;;;;;22.35;47.29;98297.69;5032750;28;20560;-58
2021/09/26 03:25:28;;;;;;;3.97;3.67;;;;;;;;;;5032674;28;20256;-58
2021/09/26 03:27:55;;;;;;;4.00;3.70;;;;;;;22.34;47.21;98301.38;5032580;28;20590;-57
2021/09/26 03:30:22;;;;;;;3.70;3.50;;;;;;;22.37;47.37;98295.66;5032690;28;20191;-57
2021/09/26 03:32:48;;;;;;;3.37;3.17;;;;;;;22.40;47.19;98302.44;5031259;28;20256;-58
2021/09/26 03:35:15;;;;;;;3.60;3.40;;;;;;;22.39;47.46;98296.31;5032604;28;20202;-58
2021/09/26 03:37:43;;;;;;;3.60;3.40;;;;;;;22.40;47.43;98305.91;5032526;28;20198;-58
2021/09/26 03:40:13;;;;;;;3.90;3.60;;;;;;;22.40;47.11;98305.13;5032622;28;20182;-57
2021/09/26 03:42:41;;;;;;;3.23;3.03;;;;;;;22.41;47.40;98304.91;5032559;28;20191;-58
2021/09/26 03:45:09;;;;;;;3.47;3.27;;;;;;;22.43;47.17;98314.53;5032750;28;20190;-58
2021/09/26 03:47:35;;;;;;;3.53;3.23;;;;;;;22.41;47.17;98312.88;5033756;28;20212;-58
2021/09/26 03:50:04;;;;;;;3.50;3.30;;;;;;;22.41;47.15;98296.94;5036268;28;20246;-58
2021/09/26 03:52:31;;;;;;;3.60;3.40;;;;;;;22.44;47.11;98295.72;5036414;28;20182;-58
2021/09/26 03:54:58;;;;;;;3.37;3.17;;;;;;;22.46;47.02;98303.53;5036085;28;20193;-59
2021/09/26 03:57:25;;;;;;;3.70;3.50;;;;;;;22.46;47.30;98303.53;5035994;28;20196;-58
2021/09/26 03:59:51;;;;;;;3.57;3.37;;;;;;;22.43;47.06;98302.06;5034821;28;20220;-58
2021/09/26 04:02:18;;;;;;;3.47;3.27;;;;;;;22.43;47.23;98306.53;5036068;28;20193;-57
2021/09/26 04:04:44;;;;;;;3.77;3.53;;;;;;;22.44;47.04;98311.69;5036005;28;20220;-57
2021/09/26 04:07:11;;;;;;;3.53;3.27;;;;;;;22.41;47.10;98315.53;5036134;28;20676;-58
2021/09/26 04:09:37;;;;;;;4.00;3.70;;;;;;;22.42;47.32;98319.03;5035835;28;20213;-57
2021/09/26 04:12:04;;;;;;;3.43;3.23;;;;;;;22.41;47.22;98307.56;5035846;28;20190;-58
2021/09/26 04:14:30;;;;;;;3.63;3.33;;;;;;;22.40;47.05;98305.13;5034530;28;20260;-58
2021/09/26 04:16:57;;;;;;;3.53;3.33;;;;;;;22.44;47.24;98311.69;5035734;28;20656;-57
2021/09/26 04:19:23;;;;;;;3.40;3.20;;;;;;;22.44;47.23;98310.88;5034395;28;20623;-58
2021/09/26 04:21:50;;;;;;;3.67;3.47;;;;;;;22.45;47.11;98315.19;5035940;28;20659;-58
2021/09/26 04:24:18;;;;;;;3.40;3.20;;;;;;;22.50;46.92;98318.91;5034710;28;20547;-58
2021/09/26 04:26:45;;;;;;;3.47;3.27;;;;;;;22.48;46.85;98320.94;5035450;28;20749;-58
2021/09/26 04:29:12;;;;;;;3.53;3.33;;;;;;;22.48;47.12;98314.81;5035468;28;20210;-58
2021/09/26 04:31:39;;;;;;;3.50;3.30;;;;;;;22.46;46.84;98322.94;5035640;28;20198;-58
2021/09/26 04:34:09;;;;;;;3.57;3.37;;;;;;;22.41;47.03;98320.84;5035752;28;20270;-58
2021/09/26 04:36:36;;;;;;;3.40;3.20;;;;;;;22.39;47.18;98317.56;5035655;28;20194;-58
2021/09/26 04:39:04;;;;;;;3.60;3.30;;;;;;;22.40;46.88;98313.91;5035287;28;20209;-56
2021/09/26 04:41:31;;;;;;;3.40;3.20;;;;;;;22.44;47.22;98311.69;5035483;28;20252;-58
2021/09/26 04:43:58;;;;;;;3.43;3.13;;;;;;;22.47;46.96;98305.19;5035456;28;20240;-57
2021/09/26 04:46:24;;;;;;;3.57;3.37;;;;;;;22.46;47.01;98304.34;5035101;28;20233;-58
2021/09/26 04:48:51;;;;;;;3.53;3.33;;;;;;;22.48;47.12;98309.50;5035141;28;20210;-57
2021/09/26 04:51:18;;;;;;;3.60;3.30;;;;;;;22.46;46.94;98292.91;5035055;28;20216;-57
2021/09/26 04:53:45;;;;;;;3.70;3.50;;;;;;;22.45;47.02;98292.06;5035337;28;20187;-57
2021/09/26 04:56:11;;;;;;;3.30;3.10;;;;;;;22.44;46.81;98294.94;5035013;28;20190;-58
2021/09/26 04:58:38;;;;;;;3.50;3.20;;;;;;;22.43;46.86;98293.25;5033176;28;20239;-58
2021/09/26 05:01:04;;;;;;;3.60;3.40;;;;;;;22.40;46.95;98289.97;5035380;28;20190;-58
2021/09/26 05:03:31;;;;;;;3.83;3.53;;;;;;;22.38;47.24;98292.00;5035046;28;20208;-58
2021/09/26 05:05:57;;;;;;;3.60;3.40;;;;;;;22.36;46.96;98287.91;5034801;28;20188;-58
2021/09/26 05:08:24;;;;;;;3.40;3.20;;;;;;;22.37;47.05;98292.22;5034701;28;20687;-58
2021/09/26 05:10:51;;;;;;;3.63;3.43;;;;;;;22.37;47.05;98287.69;5034947;28;20194;-57
2021/09/26 05:13:17;;;;;;;3.37;3.17;;;;;;;22.37;47.12;98302.84;5034858;28;20214;-58
2021/09/26 05:15:43;;;;;;;3.57;3.37;;;;;;;22.36;47.21;98312.63;5034851;28;20672;-58
2021/09/26 05:18:10;;;;;;;4.00;3.70;;;;;;;22.36;47.01;98312.63;5034473;28;20210;-58
2021/09/26 05:20:36;;;;;;;3.50;3.30;;;;;;;22.37;47.08;98316.94;5034472;28;20719;-58
2021/09/26 05:23:03;;;;;;;3.53;3.33;;;;;;;22.33;47.21;98318.34;5034773;28;20595;-58
2021/09/26 05:25:30;;;;;;;3.40;3.20;;;;;;;22.43;46.91;98319.84;5034979;28;20644;-58
2021/09/26 05:27:56;;;;;;;3.50;3.30;;;;;;;22.44;47.01;98327.63;5034161;28;20272;-58
2021/09/26 05:30:23;;;;;;;3.63;3.43;;;;;;;22.45;46.68;98323.97;5034327;28;20193;-58
2021/09/26 05:32:50;;;;;;;3.40;3.20;;;;;;;22.43;46.94;98323.34;5034271;28;20197;-58
2021/09/26 05:35:16;;;;;;;3.13;2.93;;;;;;;22.41;46.83;98333.34;5034222;28;20190;-58
2021/09/26 05:37:43;;;;;;;3.60;3.40;;;;;;;22.36;46.88;98333.91;5032881;28;20186;-59
2021/09/26 05:40:10;;;;;;;3.30;3.10;;;;;;;22.33;47.05;98334.28;5034404;28;20190;-58
2021/09/26 05:42:36;;;;;;;3.57;3.37;;;;;;;22.39;47.02;98340.69;5034157;28;20244;-58
2021/09/26 05:45:03;;;;;;;3.30;3.10;;;;;;;22.44;46.80;98353.41;5034271;28;20671;-57
2021/09/26 05:47:30;;;;;;;3.50;3.30;;;;;;;22.50;46.78;98345.50;5033881;28;20201;-58
2021/09/26 05:49:56;;;;;;;3.10;2.90;;;;;;;22.55;46.64;98342.28;5033952;28;20603;-58
2021/09/26 05:52:23;;;;;;;3.50;3.30;;;;;;;22.59;46.55;98340.09;5034017;28;20193;-58
2021/09/26 05:54:52;;;;;;;3.33;3.13;;;;;;;22.63;46.38;98338.69;5033909;28;20194;-59
2021/09/26 05:57:19;;;;;;;3.30;3.10;;;;;;;22.67;46.38;98332.78;5033906;28;20185;-58
2021/09/26 05:59:45;;;;;;;3.50;3.30;;;;;;;22.71;46.46;98343.03;5032472;28;20317;-58
2021/09/26 06:02:12;;;;;;;3.20;3.00;;;;;;;22.74;46.24;98347.97;5033964;28;20194;-58
2021/09/26 06:04:39;;;;;;;3.33;3.13;;;;;;;22.75;46.22;98362.91;5034301;28;20198;-58
2021/09/26 06:07:05;;;;;;;3.33;3.13;;;;;;;22.77;46.04;98352.94;5033762;28;20615;-58
2021/09/26 06:09:32;;;;;;;3.40;3.20;;;;;;;22.78;46.23;98351.94;5033606;28;20790;-58
2021/09/26 06:11:59;;;;;;;3.90;3.60;;;;;;;22.80;46.14;98336.59;5032791;28;20549;-58
2021/09/26 06:14:25;;;;;;;3.57;3.37;;;;;;;22.81;46.24;98339.03;5034095;28;20185;-58
2021/09/26 06:16:52;;;;;;;3.00;2.80;;;;;;;22.80;46.19;98340.06;5033617;28;20219;-58
2021/09/26 06:19:18;;;;;;;3.20;3.00;;;;;;;22.84;46.23;98343.16;5033398;28;20579;-58
2021/09/26 06:21:45;;;;;;;3.50;3.20;;;;;;;22.83;46.23;98338.84;5033679;28;20592;-58
2021/09/26 06:24:12;;;;;;;3.40;3.10;;;;;;;22.81;46.41;98340.91;5033752;28;20662;-58
2021/09/26 06:26:40;;;;;;;3.20;3.00;;;;;;;22.80;46.16;98347.22;5033280;28;20259;-61
2021/09/26 06:29:06;;;;;;;3.20;3.00;;;;;;;22.86;46.30;98345.66;5033351;28;20210;-58
2021/09/26 06:31:33;;;;;;;3.70;3.50;;;;;;;22.83;46.12;98346.84;5032962;28;20213;-57
2021/09/26 06:34:00;;;;;;;3.20;3.00;;;;;;;22.86;46.19;98345.66;5033001;28;20680;-57
2021/09/26 06:36:27;;;;;;;3.40;3.20;;;;;;;22.90;46.09;98347.69;5033225;28;20197;-57
2021/09/26 06:38:53;;;;;;;3.43;3.23;;;;;;;22.94;45.95;98353.47;5032987;28;20252;-56
2021/09/26 06:41:20;;;;;;;3.87;3.57;;;;;;;22.96;46.30;98348.78;5033031;28;20252;-52
2021/09/26 06:43:46;;;;;;;4.07;3.70;;;;;;;22.96;46.24;98348.78;5033305;28;20192;-58
2021/09/26 06:46:13;;;;;;;3.30;3.10;;;;;;;23.00;46.08;98351.88;5033209;28;20190;-57
2021/09/26 06:48:40;;;;;;;3.40;3.10;;;;;;;23.06;46.12;98356.41;5032809;28;20287;-58
2021/09/26 06:51:07;;;;;;;3.90;3.60;;;;;;;23.08;45.95;98357.06;5032863;28;20197;-57
2021/09/26 06:53:34;;;;;;;3.47;3.27;;;;;;;23.11;46.08;98354.03;5032839;28;20186;-58
2021/09/26 06:56:00;;;;;;;3.47;3.27;;;;;;;23.15;46.04;98355.28;5032761;28;20657;-58
2021/09/26 06:58:27;;;;;;;3.40;3.20;;;;;;;23.18;45.73;98354.88;5032156;28;20210;-58
2021/09/26 07:00:53;;;;;;;3.37;3.17;;;;;;;23.20;45.78;98352.84;5032811;28;20186;-58
2021/09/26 07:03:20;;;;;;;3.70;3.40;;;;;;;23.22;45.81;98361.47;5032871;28;20186;-57
2021/09/26 07:05:47;;;;;;;3.30;3.10;;;;;;;23.24;45.74;98359.44;5032734;28;20252;-58
2021/09/26 07:08:13;;;;;;;3.20;3.00;;;;;;;23.24;45.69;98364.78;5032589;28;20280;-58
2021/09/26 07:10:41;;;;;;;3.50;3.30;;;;;;;23.25;45.81;98378.88;5033269;28;20652;-55
2021/09/26 07:13:07;;;;;;;3.80;3.50;;;;;;;23.25;45.90;98376.22;5032720;28;20285;-57
2021/09/26 07:15:34;;;;;;;3.83;3.53;;;;;;;23.20;45.96;98373.34;5032766;28;20194;-57
2021/09/26 07:18:01;;;;;;;3.70;3.50;;;;;;;23.17;46.07;98379.84;5032866;28;20208;-58
2021/09/26 07:20:28;;;;;;;3.57;3.37;;;;;;;23.15;46.07;98383.72;5033183;28;20193;-58
2021/09/26 07:22:59;;;;;;;3.77;3.57;;;;;;;23.09;46.21;98377.34;5034715;28;20189;-58
2021/09/26 07:25:27;;;;;;;3.50;3.30;;;;;;;23.04;46.22;98382.41;5036905;28;20256;-57
2021/09/26 07:27:55;;;;;;;3.93;3.63;;;;;;;23.00;46.38;98384.66;5036518;28;20275;-58
2021/09/26 07:30:21;;;;;;;4.07;3.40;;;;;;;22.95;46.42;98382.56;5036559;28;20188;-54
2021/09/26 07:32:48;;;;;;;3.83;3.43;;;;;;;22.94;46.53;98390.72;5036263;28;20245;-58
2021/09/26 07:35:15;;;;;;;3.67;3.40;;;;;;;22.95;46.72;98382.56;5036398;28;20190;-58
2021/09/26 07:37:42;;;;;;;4.10;3.80;;;;;;;22.96;46.55;98394.84;5036485;28;20182;-58
2021/09/26 07:40:09;;;;;;;3.70;3.50;;;;;;;22.93;46.52;98395.25;5034961;28;20198;-57
2021/09/26 07:42:36;;;;;;;4.50;4.03;;;;;;;22.92;46.55;98393.59;5035055;28;20221;-58
2021/09/26 07:45:06;;;;;;;3.60;3.30;;;;;;;22.95;46.70;98398.53;5036424;28;20593;-58
2021/09/26 07:47:33;;;;;;;3.67;3.37;;;;;;;22.92;46.74;98398.91;5034860;28;20343;-57
2021/09/26 07:50:01;;;;;;;3.60;3.40;;;;;;;22.95;46.63;98400.34;5036167;28;20194;-57
2021/09/26 07:52:28;;;;;;;5.37;3.77;;;;;;;22.94;46.81;98404.88;5036025;28;20260;-58
2021/09/26 07:54:58;;;;;;;4.10;3.70;;;;;;;22.98;46.51;98405.28;5035399;28;20190;-58
2021/09/26 07:57:25;;;;;;;3.70;3.40;;;;;;;22.94;46.73;98394.22;5036068;28;20179;-59
2021/09/26 07:59:52;;;;;;;4.27;3.63;;;;;;;22.91;46.85;98378.63;5035944;28;20189;-57
2021/09/26 08:02:19;;;;;;;3.57;3.37;;;;;;;22.92;46.66;98377.63;5035858;28;20194;-58
2021/09/26 08:04:46;;;;;;;4.17;3.77;;;;;;;22.91;46.89;98373.28;5035804;28;20292;-57
2021/09/26 08:07:13;;;;;;;3.97;3.60;;;;;;;22.88;46.97;98381.66;5035657;28;20186;-58
2021/09/26 08:09:40;;;;;;;3.77;3.47;;;;;;;22.84;47.01;98380.41;5035952;28;20210;-58
2021/09/26 08:12:07;;;;;;;4.30;3.90;;;;;;;22.81;47.06;98394.09;5035655;28;20186;-57
2021/09/26 08:14:34;;;;;;;3.73;3.47;;;;;;;22.77;47.09;98395.50;5036139;28;20247;-57
2021/09/26 08:17:01;;;;;;;3.70;3.40;;;;;;;22.78;47.14;98394.50;5035492;28;20229;-55
2021/09/26 08:19:28;;;;;;;3.50;3.30;;;;;;;22.82;47.14;98383.25;5035479;28;20214;-57
2021/09/26 08:21:55;;;;;;;3.90;3.60;;;;;;;22.86;47.24;98382.91;5035463;28;20208;-57
2021/09/26 08:24:22;;;;;;;3.93;3.63;;;;;;;22.85;47.08;98382.06;5035638;28;20565;-58
2021/09/26 08:26:48;;;;;;;3.70;3.40;;;;;;;22.86;47.06;98388.22;5035294;28;20201;-57
2021/09/26 08:29:15;;;;;;;5.20;3.83;;;;;;;22.88;47.10;98394.97;5035170;28;20295;-58
2021/09/26 08:31:41;;;;;;;4.07;3.77;;;;;;;22.86;47.09;98402.31;5035227;28;20198;-57
2021/09/26 08:34:08;;;;;;;4.10;3.70;;;;;;;22.87;47.13;98400.50;5033141;28;20657;-58
2021/09/26 08:36:35;;;;;;;3.80;3.50;;;;;;;22.87;47.30;98417.28;5035198;28;20553;-57
2021/09/26 08:39:02;;;;;;;5.47;3.50;;;;;;;22.85;47.34;98424.63;5035129;28;20271;-58
2021/09/26 08:41:30;;;;;;;5.23;3.80;;;;;;;22.87;47.51;98433.25;5035078;28;20535;-56
2021/09/26 08:43:57;;;;;;;4.23;3.90;;;;;;;22.87;47.48;98441.22;5035032;28;20205;-58
2021/09/26 08:46:24;;;;;;;4.93;4.00;;;;;;;22.88;47.51;98445.53;5034985;28;20187;-58
2021/09/26 08:48:52;;;;;;;4.40;4.00;;;;;;;22.92;47.56;98459.28;5034760;28;20218;-57
2021/09/26 08:51:19;;;;;;;5.27;4.80;;;;;;;22.93;47.37;98464.44;5035123;28;20256;-58
2021/09/26 08:53:46;;;;;;;4.73;4.33;;;;;;;22.90;47.62;98459.47;5033816;28;20260;-57
2021/09/26 08:56:16;;;;;;;4.97;4.30;;;;;;;22.86;47.34;98447.56;5034827;28;20213;-57
2021/09/26 08:58:44;;;;;;;5.63;4.50;;;;;;;22.83;47.56;98455.91;5034820;28;20293;-57
2021/09/26 09:01:10;;;;;;;8.57;6.07;;;;;;;22.82;47.88;98456.94;5034709;28;20212;-57
2021/09/26 09:03:37;;;;;;;9.40;6.63;;;;;;;22.83;47.65;98454.06;5034755;28;20244;-58
2021/09/26 09:06:04;;;;;;;9.77;7.43;;;;;;;22.85;47.66;98453.09;5034665;28;20248;-56
2021/09/26 09:08:30;;;;;;;11.07;7.73;;;;;;;22.83;47.80;98447.94;5034564;28;20214;-59
2021/09/26 09:10:59;;;;;;;10.83;7.97;;;;;;;22.80;47.74;98453.66;5034671;28;20198;-57
2021/09/26 09:13:33;;;;;;;11.53;8.03;;;;;;;22.86;47.86;98466.19;5034595;28;20236;-58
2021/09/26 09:16:13;;;;;;;11.43;7.60;;;;;;;22.82;48.07;98470.25;5034819;28;20244;-58
2021/09/26 09:18:45;;;;;;;12.87;8.67;;;;;;;22.82;47.92;98471.03;5034593;28;20235;-57
2021/09/26 09:21:23;;;;;;;12.03;8.77;;;;;;;22.82;48.02;98480.88;5034798;28;20186;-57
2021/09/26 09:23:53;;;;;;;12.63;8.03;;;;;;;22.81;47.96;98484.56;5035006;28;20178;-57
2021/09/26 09:26:37;;;;;;;11.10;7.80;;;;;;;22.80;48.26;98486.38;5034394;28;20174;-57
2021/09/26 09:29:05;;;;;;;10.07;8.23;;;;;;;22.80;48.22;98491.69;5034751;28;20284;-58
2021/09/26 09:31:32;;;;;;;10.83;7.90;;;;;;;22.79;48.02;98481.25;5034324;28;20190;-57
2021/09/26 09:34:04;;;;;;;9.23;7.30;;;;;;;22.83;47.99;98493.16;5034152;28;20244;-56
2021/09/26 09:36:31;;;;;;;8.40;6.80;;;;;;;22.86;48.06;98494.63;5034522;28;20178;-58
2021/09/26 09:39:06;;;;;;;8.90;6.93;;;;;;;22.86;48.34;98490.13;5034039;28;20228;-57
2021/09/26 09:41:34;;;;;;;9.17;7.03;;;;;;;22.89;48.33;98487.09;5034052;28;20583;-58
2021/09/26 09:44:02;;;;;;;8.10;6.57;;;;;;;22.93;48.18;98493.69;5033917;28;20190;-58
2021/09/26 09:46:48;;;;;;;8.37;6.67;;;;;;;22.94;48.26;98502.50;5033759;28;20660;-54
2021/09/26 09:49:22;;;;;;;10.47;7.17;;;;;;;22.93;48.20;98509.66;5033524;28;20220;-58
2021/09/26 09:52:01;;;;;;;7.67;6.67;;;;;;;22.95;48.30;98504.97;5034089;28;20243;-58
2021/09/26 09:54:29;;;;;;;8.57;6.70;;;;;;;22.96;48.36;98509.28;5033989;28;20596;-55
2021/09/26 09:56:58;;;;;;;8.60;6.70;;;;;;;23.00;48.11;98508.91;5033561;28;20659;-58
2021/09/26 09:59:32;;;;;;;8.80;6.50;;;;;;;23.04;48.32;98508.34;5033452;28;20206;-59
2021/09/26 10:01:59;;;;;;;8.23;6.40;;;;;;;23.07;48.35;98510.63;5033525;28;20185;-56
2021/09/26 10:04:53;;;;;;;9.73;6.33;;;;;;;23.05;48.53;98503.81;5033578;28;20221;-58
2021/09/26 10:07:23;;;;;;;7.17;6.20;;;;;;;23.02;48.61;98483.75;5033747;28;20589;-58
2021/09/26 10:09:51;;;;;;;9.90;6.80;;;;;;;23.06;48.28;98482.34;5033549;28;20218;-58
2021/09/26 10:12:25;;;;;;;8.57;6.93;;;;;;;23.10;48.23;98485.47;5033555;28;20225;-58
2021/09/26 10:15:00;;;;;;;11.07;7.27;;;;;;;23.10;48.47;98488.13;5033712;28;20540;-58
2021/09/26 10:17:28;;;;;;;8.93;7.20;;;;;;;23.05;48.63;98483.38;5033686;28;20178;-58
2021/09/26 10:19:54;;;;;;;10.80;7.93;;;;;;;23.06;48.76;98478.84;5033300;28;20194;-58
2021/09/26 10:22:22;;;;;;;9.77;7.40;;;;;;;23.07;48.65;98480.50;5033630;28;20695;-56
2021/09/26 10:24:53;;;;;;;8.17;6.50;;;;;;;23.10;48.79;98485.47;5033307;28;20534;-56
2021/09/26 10:27:24;;;;;;;10.13;7.07;;;;;;;23.10;48.85;98486.28;5033418;28;20194;-57
2021/09/26 10:30:08;;;;;;;7.50;6.70;;;;;;;23.08;48.88;98482.19;5033652;28;20209;-57
2021/09/26 10:32:36;;;;;;;7.90;6.70;;;;;;;23.13;48.87;98490.41;5033184;28;20248;-56
2021/09/26 10:35:04;;;;;;;7.47;6.43;;;;;;;23.13;48.91;98489.56;5033430;28;20190;-58
2021/09/26 10:37:31;;;;;;;6.33;5.73;;;;;;;23.11;48.85;98489.78;5033338;28;20723;-57
2021/09/26 10:39:58;;;;;;;7.30;5.90;;;;;;;23.07;48.82;98493.81;5033422;28;20210;-57
2021/09/26 10:42:25;;;;;;;7.47;6.10;;;;;;;23.01;48.85;98497.25;5033269;28;20189;-56
2021/09/26 10:44:53;;;;;;;7.00;6.30;;;;;;;23.00;49.01;98498.25;5033147;28;20190;-57
2021/09/26 10:47:28;;;;;;;6.97;6.13;;;;;;;22.99;48.99;98493.94;5033109;28;20579;-57
2021/09/26 10:50:12;;;;;;;8.47;6.60;;;;;;;23.00;49.01;98506.22;5031902;28;20209;-57
2021/09/26 10:52:42;;;;;;;6.63;5.97;;;;;;;22.96;49.10;98493.31;5033673;28;20228;-56
2021/09/26 10:55:15;;;;;;;7.10;6.03;;;;;;;22.97;49.05;98492.28;5033039;28;20190;-57
2021/09/26 10:57:44;;;;;;;7.00;5.87;;;;;;;22.94;49.21;98500.66;5032603;28;20651;-57
2021/09/26 11:00:15;;;;;;;6.67;6.00;;;;;;;22.96;49.06;98501.28;5033002;28;20186;-57
2021/09/26 11:02:45;;;;;;;6.50;5.90;;;;;;;22.95;49.20;98496.16;5033170;28;20593;-57
2021/09/26 11:05:32;;;;;;;8.87;6.67;;;;;;;23.01;48.88;98486.59;5032919;28;20235;-55
2021/09/26 11:07:59;;;;;;;6.60;5.80;;;;;;;23.02;49.02;98488.25;5032972;28;20214;-55
2021/09/26 11:10:39;;;;;;;6.93;6.10;;;;;;;23.03;48.75;98489.88;5033098;28;20189;-57
2021/09/26 11:13:29;;;;;;;7.00;6.23;;;;;;;23.05;48.85;98482.53;5032870;28;20174;-57
2021/09/26 11:16:15;;;;;;;6.10;5.50;;;;;;;23.02;48.79;98480.25;5033393;28;20182;-57
2021/09/26 11:18:49;;;;;;;6.77;5.70;;;;;;;22.99;48.62;98483.31;5032985;28;20201;-56
2021/09/26 11:21:37;;;;;;;7.37;5.50;;;;;;;22.97;48.79;98478.16;5033518;28;20635;-57
2021/09/26 11:24:08;;;;;;;6.10;5.50;;;;;;;22.95;48.63;98474.88;5032870;28;20234;-56
2021/09/26 11:26:56;;;;;;;7.00;5.63;;;;;;;22.97;48.84;98481.66;5032902;28;20182;-57
2021/09/26 11:29:24;;;;;;;6.73;6.03;;;;;;;22.97;48.69;98486.13;5033253;28;20561;-57
2021/09/26 11:31:51;;;;;;;6.33;5.57;;;;;;;22.95;48.67;98483.69;5032710;28;20229;-57
2021/09/26 11:34:44;;;;;;;6.10;5.50;;;;;;;22.95;48.59;98482.84;5032787;28;20240;-56
2021/09/26 11:37:12;;;;;;;6.20;5.57;;;;;;;22.92;48.78;98484.06;5033027;28;20190;-58
2021/09/26 11:39:41;;;;;;;6.47;5.77;;;;;;;22.95;48.47;98482.84;5032651;28;20210;-56
2021/09/26 11:42:32;;;;;;;6.97;5.30;;;;;;;23.01;48.56;98482.09;5032735;28;20663;-57
2021/09/26 11:45:01;;;;;;;6.70;6.00;;;;;;;22.96;48.67;98479.16;5029686;28;20245;-57